Bitte eine E-Mail-Adresse für das Benutzerkonto eingeben. Ein Bestätigungscode wird dann an diese verschickt. Sobald der Code vorliegt, kann ein neues Passwort für das Benutzerkonto festgelegt werden.

 

 

WebCam

  
Kamera Halle
Kamera Vorfeld
Wetter EDDS

METAR

EDDS 161220Z VRB04KT 9999 SCT030TCU 21/12 Q1022 NOSIG =
EDDS 161100Z 1612/1712 33006KT 9999 BKN025 BECMG 1618/1620 VRB03KT PROB30 TEMPO 1702/1706 2500 BR BKN002 BECMG 1706/1708 06007KT


TAF

EDDS 161100Z 1612/1712 33006KT 9999 BKN025 BECMG 1618/1620 VRB03KT PROB30 TEMPO 1702/1706 2500 BR BKN002 BECMG 1706/1708 06007KT =


SR/SS

03:18 / 19:25 UTC
(EDSO 16-06-2019)